sensor_id;sensor_type;location;lat;lon;timestamp;P1;durP1;ratioP1;P2;durP2;ratioP2
8663;SDS011;4369;47.842;13.096;2023-09-19T00:00:30;1.30;;;1.20;;
8663;SDS011;4369;47.842;13.096;2023-09-19T00:02:59;1.40;;;1.30;;
8663;SDS011;4369;47.842;13.096;2023-09-19T00:05:27;1.37;;;1.13;;
8663;SDS011;4369;47.842;13.096;2023-09-19T00:07:56;4.67;;;1.60;;
8663;SDS011;4369;47.842;13.096;2023-09-19T00:10:24;1.73;;;1.63;;
8663;SDS011;4369;47.842;13.096;2023-09-19T00:12:52;2.53;;;1.33;;
8663;SDS011;4369;47.842;13.096;2023-09-19T00:15:20;1.73;;;1.30;;
8663;SDS011;4369;47.842;13.096;2023-09-19T00:17:47;3.57;;;1.60;;
8663;SDS011;4369;47.842;13.096;2023-09-19T00:20:14;3.67;;;1.77;;
8663;SDS011;4369;47.842;13.096;2023-09-19T00:22:44;3.47;;;1.77;;
8663;SDS011;4369;47.842;13.096;2023-09-19T00:25:11;1.60;;;1.50;;
8663;SDS011;4369;47.842;13.096;2023-09-19T00:27:40;1.97;;;1.70;;
8663;SDS011;4369;47.842;13.096;2023-09-19T00:30:08;1.57;;;1.47;;
8663;SDS011;4369;47.842;13.096;2023-09-19T00:32:40;1.50;;;1.40;;
8663;SDS011;4369;47.842;13.096;2023-09-19T00:35:09;2.30;;;1.60;;
8663;SDS011;4369;47.842;13.096;2023-09-19T00:37:36;1.50;;;1.20;;
8663;SDS011;4369;47.842;13.096;2023-09-19T00:40:07;2.60;;;1.40;;
8663;SDS011;4369;47.842;13.096;2023-09-19T00:42:37;1.43;;;1.30;;
8663;SDS011;4369;47.842;13.096;2023-09-19T00:45:06;2.83;;;1.60;;
8663;SDS011;4369;47.842;13.096;2023-09-19T00:47:35;1.37;;;1.23;;
8663;SDS011;4369;47.842;13.096;2023-09-19T00:50:03;1.23;;;1.00;;
8663;SDS011;4369;47.842;13.096;2023-09-19T00:52:32;1.87;;;1.33;;
8663;SDS011;4369;47.842;13.096;2023-09-19T00:55:01;1.47;;;1.20;;
8663;SDS011;4369;47.842;13.096;2023-09-19T00:57:31;1.17;;;1.10;;
8663;SDS011;4369;47.842;13.096;2023-09-19T00:59:58;2.10;;;1.37;;
8663;SDS011;4369;47.842;13.096;2023-09-19T01:02:30;2.10;;;1.40;;
8663;SDS011;4369;47.842;13.096;2023-09-19T01:04:57;2.30;;;1.20;;
8663;SDS011;4369;47.842;13.096;2023-09-19T01:07:24;2.80;;;1.40;;
8663;SDS011;4369;47.842;13.096;2023-09-19T01:09:51;1.50;;;1.40;;
8663;SDS011;4369;47.842;13.096;2023-09-19T01:12:22;2.77;;;1.20;;
8663;SDS011;4369;47.842;13.096;2023-09-19T01:15:01;1.70;;;1.60;;
8663;SDS011;4369;47.842;13.096;2023-09-19T01:17:38;1.43;;;1.33;;
8663;SDS011;4369;47.842;13.096;2023-09-19T01:20:17;1.73;;;1.13;;
8663;SDS011;4369;47.842;13.096;2023-09-19T01:25:49;1.43;;;1.33;;
8663;SDS011;4369;47.842;13.096;2023-09-19T01:28:31;2.20;;;1.63;;
8663;SDS011;4369;47.842;13.096;2023-09-19T01:31:03;1.33;;;1.23;;
8663;SDS011;4369;47.842;13.096;2023-09-19T01:36:25;2.10;;;1.83;;
8663;SDS011;4369;47.842;13.096;2023-09-19T01:38:56;2.07;;;1.90;;
8663;SDS011;4369;47.842;13.096;2023-09-19T01:41:31;2.43;;;1.47;;
8663;SDS011;4369;47.842;13.096;2023-09-19T01:44:12;2.33;;;1.60;;
8663;SDS011;4369;47.842;13.096;2023-09-19T01:46:47;2.07;;;1.87;;
8663;SDS011;4369;47.842;13.096;2023-09-19T01:49:16;1.80;;;1.57;;
8663;SDS011;4369;47.842;13.096;2023-09-19T01:51:58;1.77;;;1.67;;
8663;SDS011;4369;47.842;13.096;2023-09-19T01:54:31;2.10;;;1.40;;
8663;SDS011;4369;47.842;13.096;2023-09-19T01:57:08;1.80;;;1.70;;
8663;SDS011;4369;47.842;13.096;2023-09-19T01:59:43;2.40;;;1.80;;
8663;SDS011;4369;47.842;13.096;2023-09-19T02:02:16;2.80;;;1.80;;
8663;SDS011;4369;47.842;13.096;2023-09-19T02:04:43;2.27;;;1.50;;
8663;SDS011;4369;47.842;13.096;2023-09-19T02:07:10;1.63;;;1.50;;
8663;SDS011;4369;47.842;13.096;2023-09-19T02:09:41;1.80;;;1.70;;
8663;SDS011;4369;47.842;13.096;2023-09-19T02:12:08;2.40;;;1.60;;
8663;SDS011;4369;47.842;13.096;2023-09-19T02:14:35;1.90;;;1.67;;
8663;SDS011;4369;47.842;13.096;2023-09-19T02:17:03;1.77;;;1.60;;
8663;SDS011;4369;47.842;13.096;2023-09-19T02:19:37;2.40;;;1.60;;
8663;SDS011;4369;47.842;13.096;2023-09-19T02:22:06;2.37;;;1.60;;
8663;SDS011;4369;47.842;13.096;2023-09-19T02:24:35;1.60;;;1.50;;
8663;SDS011;4369;47.842;13.096;2023-09-19T02:27:03;2.83;;;1.97;;
8663;SDS011;4369;47.842;13.096;2023-09-19T02:29:31;2.10;;;2.00;;
8663;SDS011;4369;47.842;13.096;2023-09-19T02:31:59;1.90;;;1.80;;
8663;SDS011;4369;47.842;13.096;2023-09-19T02:34:26;1.90;;;1.80;;
8663;SDS011;4369;47.842;13.096;2023-09-19T02:36:55;1.63;;;1.53;;
8663;SDS011;4369;47.842;13.096;2023-09-19T02:39:22;4.13;;;2.00;;
8663;SDS011;4369;47.842;13.096;2023-09-19T02:41:49;1.80;;;1.60;;
8663;SDS011;4369;47.842;13.096;2023-09-19T02:44:16;1.70;;;1.60;;
8663;SDS011;4369;47.842;13.096;2023-09-19T02:46:45;1.70;;;1.60;;
8663;SDS011;4369;47.842;13.096;2023-09-19T02:49:12;3.00;;;1.80;;
8663;SDS011;4369;47.842;13.096;2023-09-19T02:51:39;2.00;;;1.80;;
8663;SDS011;4369;47.842;13.096;2023-09-19T02:54:08;3.83;;;1.50;;
8663;SDS011;4369;47.842;13.096;2023-09-19T02:56:35;2.77;;;1.70;;
8663;SDS011;4369;47.842;13.096;2023-09-19T02:59:02;2.70;;;2.03;;
8663;SDS011;4369;47.842;13.096;2023-09-19T03:01:30;2.37;;;1.80;;
8663;SDS011;4369;47.842;13.096;2023-09-19T03:03:58;2.00;;;1.80;;
8663;SDS011;4369;47.842;13.096;2023-09-19T03:06:25;2.17;;;2.00;;
8663;SDS011;4369;47.842;13.096;2023-09-19T03:08:52;2.17;;;1.67;;
8663;SDS011;4369;47.842;13.096;2023-09-19T03:11:23;1.93;;;1.67;;
8663;SDS011;4369;47.842;13.096;2023-09-19T03:13:50;1.93;;;1.67;;
8663;SDS011;4369;47.842;13.096;2023-09-19T03:16:18;1.87;;;1.63;;
8663;SDS011;4369;47.842;13.096;2023-09-19T03:18:47;3.00;;;1.43;;
8663;SDS011;4369;47.842;13.096;2023-09-19T03:21:14;1.63;;;1.50;;
8663;SDS011;4369;47.842;13.096;2023-09-19T03:23:42;3.00;;;1.30;;
8663;SDS011;4369;47.842;13.096;2023-09-19T03:26:10;1.80;;;1.70;;
8663;SDS011;4369;47.842;13.096;2023-09-19T03:28:40;1.40;;;1.30;;
8663;SDS011;4369;47.842;13.096;2023-09-19T03:31:07;1.50;;;1.40;;
8663;SDS011;4369;47.842;13.096;2023-09-19T03:33:35;2.33;;;1.53;;
8663;SDS011;4369;47.842;13.096;2023-09-19T03:36:02;1.57;;;1.47;;
8663;SDS011;4369;47.842;13.096;2023-09-19T03:38:30;1.60;;;1.50;;
8663;SDS011;4369;47.842;13.096;2023-09-19T03:40:59;1.20;;;1.07;;
8663;SDS011;4369;47.842;13.096;2023-09-19T03:43:27;4.27;;;1.53;;
8663;SDS011;4369;47.842;13.096;2023-09-19T03:45:56;1.57;;;1.33;;
8663;SDS011;4369;47.842;13.096;2023-09-19T03:48:23;3.70;;;1.53;;
8663;SDS011;4369;47.842;13.096;2023-09-19T03:50:50;1.70;;;1.60;;
8663;SDS011;4369;47.842;13.096;2023-09-19T03:53:17;1.40;;;1.30;;
8663;SDS011;4369;47.842;13.096;2023-09-19T03:55:44;1.77;;;1.67;;
8663;SDS011;4369;47.842;13.096;2023-09-19T03:58:12;1.33;;;1.23;;
8663;SDS011;4369;47.842;13.096;2023-09-19T04:00:39;2.93;;;1.40;;
8663;SDS011;4369;47.842;13.096;2023-09-19T04:03:07;2.87;;;1.53;;
8663;SDS011;4369;47.842;13.096;2023-09-19T04:05:43;1.70;;;1.50;;
8663;SDS011;4369;47.842;13.096;2023-09-19T04:08:10;2.00;;;1.50;;
8663;SDS011;4369;47.842;13.096;2023-09-19T04:10:37;1.50;;;1.40;;
8663;SDS011;4369;47.842;13.096;2023-09-19T04:13:04;3.60;;;1.70;;
8663;SDS011;4369;47.842;13.096;2023-09-19T04:15:32;2.77;;;1.50;;
8663;SDS011;4369;47.842;13.096;2023-09-19T04:17:59;2.03;;;1.30;;
8663;SDS011;4369;47.842;13.096;2023-09-19T04:20:29;2.10;;;1.63;;
8663;SDS011;4369;47.842;13.096;2023-09-19T04:22:57;2.87;;;1.73;;
8663;SDS011;4369;47.842;13.096;2023-09-19T04:25:25;3.47;;;1.60;;
8663;SDS011;4369;47.842;13.096;2023-09-19T04:27:52;1.70;;;1.60;;
8663;SDS011;4369;47.842;13.096;2023-09-19T04:30:19;1.67;;;1.53;;
8663;SDS011;4369;47.842;13.096;2023-09-19T04:32:46;2.57;;;1.60;;
8663;SDS011;4369;47.842;13.096;2023-09-19T04:35:15;3.37;;;1.83;;
8663;SDS011;4369;47.842;13.096;2023-09-19T04:37:44;1.67;;;1.57;;
8663;SDS011;4369;47.842;13.096;2023-09-19T04:40:11;1.60;;;1.50;;
8663;SDS011;4369;47.842;13.096;2023-09-19T04:42:39;3.80;;;2.00;;
8663;SDS011;4369;47.842;13.096;2023-09-19T04:45:07;1.90;;;1.67;;
8663;SDS011;4369;47.842;13.096;2023-09-19T04:47:35;2.03;;;1.83;;
8663;SDS011;4369;47.842;13.096;2023-09-19T04:50:06;2.43;;;1.80;;
8663;SDS011;4369;47.842;13.096;2023-09-19T04:52:38;2.67;;;1.80;;
8663;SDS011;4369;47.842;13.096;2023-09-19T04:55:09;2.50;;;1.97;;
8663;SDS011;4369;47.842;13.096;2023-09-19T04:57:38;3.20;;;1.70;;
8663;SDS011;4369;47.842;13.096;2023-09-19T05:00:06;2.13;;;1.63;;
8663;SDS011;4369;47.842;13.096;2023-09-19T05:02:37;2.00;;;1.80;;
8663;SDS011;4369;47.842;13.096;2023-09-19T05:05:06;2.13;;;1.90;;
8663;SDS011;4369;47.842;13.096;2023-09-19T05:07:35;4.30;;;2.13;;
8663;SDS011;4369;47.842;13.096;2023-09-19T05:10:02;4.03;;;1.80;;
8663;SDS011;4369;47.842;13.096;2023-09-19T05:12:33;3.93;;;1.77;;
8663;SDS011;4369;47.842;13.096;2023-09-19T05:15:01;2.77;;;1.97;;
8663;SDS011;4369;47.842;13.096;2023-09-19T05:17:28;1.90;;;1.63;;
8663;SDS011;4369;47.842;13.096;2023-09-19T05:19:56;2.63;;;1.90;;
8663;SDS011;4369;47.842;13.096;2023-09-19T05:22:26;1.87;;;1.70;;
8663;SDS011;4369;47.842;13.096;2023-09-19T05:24:53;2.17;;;1.80;;
8663;SDS011;4369;47.842;13.096;2023-09-19T05:27:20;1.73;;;1.63;;
8663;SDS011;4369;47.842;13.096;2023-09-19T05:29:48;3.43;;;1.63;;
8663;SDS011;4369;47.842;13.096;2023-09-19T05:32:16;2.27;;;1.50;;
8663;SDS011;4369;47.842;13.096;2023-09-19T05:34:44;2.90;;;1.70;;
8663;SDS011;4369;47.842;13.096;2023-09-19T05:37:12;2.80;;;1.90;;
8663;SDS011;4369;47.842;13.096;2023-09-19T05:39:40;1.93;;;1.70;;
8663;SDS011;4369;47.842;13.096;2023-09-19T05:42:07;3.20;;;2.10;;
8663;SDS011;4369;47.842;13.096;2023-09-19T05:44:34;5.00;;;2.20;;
8663;SDS011;4369;47.842;13.096;2023-09-19T05:47:03;2.47;;;2.00;;
8663;SDS011;4369;47.842;13.096;2023-09-19T05:49:30;2.53;;;1.87;;
8663;SDS011;4369;47.842;13.096;2023-09-19T05:51:57;3.27;;;1.50;;
8663;SDS011;4369;47.842;13.096;2023-09-19T05:54:24;3.77;;;1.87;;
8663;SDS011;4369;47.842;13.096;2023-09-19T05:56:52;2.33;;;1.97;;
8663;SDS011;4369;47.842;13.096;2023-09-19T05:59:19;3.23;;;1.90;;
8663;SDS011;4369;47.842;13.096;2023-09-19T06:01:46;2.07;;;1.97;;
8663;SDS011;4369;47.842;13.096;2023-09-19T06:04:14;2.10;;;1.90;;
8663;SDS011;4369;47.842;13.096;2023-09-19T06:06:41;1.97;;;1.77;;
8663;SDS011;4369;47.842;13.096;2023-09-19T06:09:08;4.20;;;2.20;;
8663;SDS011;4369;47.842;13.096;2023-09-19T06:11:35;2.07;;;1.87;;
8663;SDS011;4369;47.842;13.096;2023-09-19T06:14:02;3.20;;;2.10;;
8663;SDS011;4369;47.842;13.096;2023-09-19T06:16:29;3.90;;;2.03;;
8663;SDS011;4369;47.842;13.096;2023-09-19T06:18:58;2.27;;;1.70;;
8663;SDS011;4369;47.842;13.096;2023-09-19T06:21:27;2.07;;;1.87;;
8663;SDS011;4369;47.842;13.096;2023-09-19T06:23:54;2.70;;;2.20;;
8663;SDS011;4369;47.842;13.096;2023-09-19T06:26:23;3.13;;;2.03;;
8663;SDS011;4369;47.842;13.096;2023-09-19T06:28:51;2.57;;;2.00;;
8663;SDS011;4369;47.842;13.096;2023-09-19T06:31:19;3.27;;;2.00;;
8663;SDS011;4369;47.842;13.096;2023-09-19T06:33:48;2.23;;;2.00;;
8663;SDS011;4369;47.842;13.096;2023-09-19T06:36:15;4.07;;;2.30;;
8663;SDS011;4369;47.842;13.096;2023-09-19T06:38:43;3.27;;;2.13;;
8663;SDS011;4369;47.842;13.096;2023-09-19T06:41:10;3.93;;;2.50;;
8663;SDS011;4369;47.842;13.096;2023-09-19T06:43:38;2.03;;;1.93;;
8663;SDS011;4369;47.842;13.096;2023-09-19T06:46:05;2.47;;;1.97;;
8663;SDS011;4369;47.842;13.096;2023-09-19T06:48:32;3.30;;;1.97;;
8663;SDS011;4369;47.842;13.096;2023-09-19T06:50:59;3.60;;;2.20;;
8663;SDS011;4369;47.842;13.096;2023-09-19T06:53:29;2.27;;;1.90;;
8663;SDS011;4369;47.842;13.096;2023-09-19T06:55:59;3.40;;;2.20;;
8663;SDS011;4369;47.842;13.096;2023-09-19T06:58:25;4.23;;;1.80;;
8663;SDS011;4369;47.842;13.096;2023-09-19T07:00:52;3.47;;;1.87;;
8663;SDS011;4369;47.842;13.096;2023-09-19T07:03:19;4.00;;;1.90;;
8663;SDS011;4369;47.842;13.096;2023-09-19T07:05:48;1.97;;;1.77;;
8663;SDS011;4369;47.842;13.096;2023-09-19T07:08:15;2.00;;;1.80;;
8663;SDS011;4369;47.842;13.096;2023-09-19T07:10:45;8.40;;;2.33;;
8663;SDS011;4369;47.842;13.096;2023-09-19T07:13:15;3.27;;;1.80;;
8663;SDS011;4369;47.842;13.096;2023-09-19T07:15:43;2.87;;;1.80;;
8663;SDS011;4369;47.842;13.096;2023-09-19T07:18:12;2.63;;;1.53;;
8663;SDS011;4369;47.842;13.096;2023-09-19T07:20:41;3.17;;;1.70;;
8663;SDS011;4369;47.842;13.096;2023-09-19T07:23:14;2.70;;;1.70;;
8663;SDS011;4369;47.842;13.096;2023-09-19T07:25:43;2.33;;;1.60;;
8663;SDS011;4369;47.842;13.096;2023-09-19T07:28:10;2.97;;;1.80;;
8663;SDS011;4369;47.842;13.096;2023-09-19T07:30:38;2.40;;;1.70;;
8663;SDS011;4369;47.842;13.096;2023-09-19T07:33:06;3.70;;;1.70;;
8663;SDS011;4369;47.842;13.096;2023-09-19T07:35:36;2.07;;;1.60;;
8663;SDS011;4369;47.842;13.096;2023-09-19T07:38:05;2.17;;;1.97;;
8663;SDS011;4369;47.842;13.096;2023-09-19T07:40:32;2.40;;;1.50;;
8663;SDS011;4369;47.842;13.096;2023-09-19T07:42:58;2.30;;;1.30;;
8663;SDS011;4369;47.842;13.096;2023-09-19T07:45:26;2.60;;;1.70;;
8663;SDS011;4369;47.842;13.096;2023-09-19T07:47:56;1.87;;;1.67;;
8663;SDS011;4369;47.842;13.096;2023-09-19T07:50:23;2.70;;;1.60;;
8663;SDS011;4369;47.842;13.096;2023-09-19T07:52:51;2.43;;;1.40;;
8663;SDS011;4369;47.842;13.096;2023-09-19T07:55:21;1.53;;;1.23;;
8663;SDS011;4369;47.842;13.096;2023-09-19T07:57:50;1.63;;;1.47;;
8663;SDS011;4369;47.842;13.096;2023-09-19T08:00:17;1.50;;;1.40;;
8663;SDS011;4369;47.842;13.096;2023-09-19T08:02:44;2.60;;;1.60;;
8663;SDS011;4369;47.842;13.096;2023-09-19T08:05:13;1.30;;;1.20;;
8663;SDS011;4369;47.842;13.096;2023-09-19T08:07:42;1.50;;;1.40;;
8663;SDS011;4369;47.842;13.096;2023-09-19T08:10:10;1.50;;;1.40;;
8663;SDS011;4369;47.842;13.096;2023-09-19T08:12:38;1.53;;;1.30;;
8663;SDS011;4369;47.842;13.096;2023-09-19T08:15:11;1.70;;;1.43;;
8663;SDS011;4369;47.842;13.096;2023-09-19T08:17:38;3.20;;;1.60;;
8663;SDS011;4369;47.842;13.096;2023-09-19T08:20:06;1.60;;;1.20;;
8663;SDS011;4369;47.842;13.096;2023-09-19T08:22:42;1.70;;;1.50;;
8663;SDS011;4369;47.842;13.096;2023-09-19T08:25:12;1.70;;;1.50;;
8663;SDS011;4369;47.842;13.096;2023-09-19T08:27:41;1.27;;;1.17;;
8663;SDS011;4369;47.842;13.096;2023-09-19T08:30:09;2.07;;;1.60;;
8663;SDS011;4369;47.842;13.096;2023-09-19T08:32:37;1.20;;;1.10;;
8663;SDS011;4369;47.842;13.096;2023-09-19T08:35:04;1.97;;;1.70;;
8663;SDS011;4369;47.842;13.096;2023-09-19T08:37:34;1.60;;;1.27;;
8663;SDS011;4369;47.842;13.096;2023-09-19T08:40:03;2.43;;;1.33;;
8663;SDS011;4369;47.842;13.096;2023-09-19T08:42:46;2.20;;;1.20;;
8663;SDS011;4369;47.842;13.096;2023-09-19T08:45:14;1.43;;;1.03;;
8663;SDS011;4369;47.842;13.096;2023-09-19T08:47:43;1.80;;;1.10;;
8663;SDS011;4369;47.842;13.096;2023-09-19T08:50:17;1.73;;;1.10;;
8663;SDS011;4369;47.842;13.096;2023-09-19T08:52:49;2.00;;;1.20;;
8663;SDS011;4369;47.842;13.096;2023-09-19T08:55:21;3.87;;;1.20;;
8663;SDS011;4369;47.842;13.096;2023-09-19T08:57:55;1.70;;;1.60;;
8663;SDS011;4369;47.842;13.096;2023-09-19T09:00:25;1.53;;;1.00;;
8663;SDS011;4369;47.842;13.096;2023-09-19T09:02:54;1.43;;;1.33;;
8663;SDS011;4369;47.842;13.096;2023-09-19T09:05:22;1.63;;;1.17;;
8663;SDS011;4369;47.842;13.096;2023-09-19T09:07:51;3.00;;;1.70;;
8663;SDS011;4369;47.842;13.096;2023-09-19T09:10:21;1.30;;;1.20;;
8663;SDS011;4369;47.842;13.096;2023-09-19T09:12:48;1.23;;;1.10;;
8663;SDS011;4369;47.842;13.096;2023-09-19T09:15:17;2.27;;;1.40;;
8663;SDS011;4369;47.842;13.096;2023-09-19T09:17:47;1.50;;;1.40;;
8663;SDS011;4369;47.842;13.096;2023-09-19T09:20:15;1.40;;;1.27;;
8663;SDS011;4369;47.842;13.096;2023-09-19T09:22:50;1.40;;;1.30;;
8663;SDS011;4369;47.842;13.096;2023-09-19T09:25:18;1.50;;;1.40;;
8663;SDS011;4369;47.842;13.096;2023-09-19T09:27:48;1.37;;;1.27;;
8663;SDS011;4369;47.842;13.096;2023-09-19T09:30:32;2.37;;;1.37;;
8663;SDS011;4369;47.842;13.096;2023-09-19T09:33:09;1.93;;;1.40;;
8663;SDS011;4369;47.842;13.096;2023-09-19T09:35:38;1.30;;;1.20;;
8663;SDS011;4369;47.842;13.096;2023-09-19T09:38:17;1.50;;;1.40;;
8663;SDS011;4369;47.842;13.096;2023-09-19T09:40:49;2.03;;;1.10;;
8663;SDS011;4369;47.842;13.096;2023-09-19T09:43:27;1.40;;;1.30;;
8663;SDS011;4369;47.842;13.096;2023-09-19T09:49:10;2.20;;;1.30;;
8663;SDS011;4369;47.842;13.096;2023-09-19T09:51:58;1.90;;;1.30;;
8663;SDS011;4369;47.842;13.096;2023-09-19T09:54:30;1.97;;;1.10;;
8663;SDS011;4369;47.842;13.096;2023-09-19T09:57:04;2.30;;;1.60;;
8663;SDS011;4369;47.842;13.096;2023-09-19T09:59:49;2.73;;;1.20;;
8663;SDS011;4369;47.842;13.096;2023-09-19T10:02:18;1.33;;;1.17;;
8663;SDS011;4369;47.842;13.096;2023-09-19T10:04:50;1.80;;;1.20;;
8663;SDS011;4369;47.842;13.096;2023-09-19T10:07:27;2.30;;;1.80;;
8663;SDS011;4369;47.842;13.096;2023-09-19T10:09:59;1.47;;;1.30;;
8663;SDS011;4369;47.842;13.096;2023-09-19T10:12:41;2.57;;;1.33;;
8663;SDS011;4369;47.842;13.096;2023-09-19T10:15:11;2.67;;;1.30;;
8663;SDS011;4369;47.842;13.096;2023-09-19T10:17:42;1.70;;;0.93;;
8663;SDS011;4369;47.842;13.096;2023-09-19T10:20:12;1.23;;;0.80;;
8663;SDS011;4369;47.842;13.096;2023-09-19T10:23:04;1.57;;;1.33;;
8663;SDS011;4369;47.842;13.096;2023-09-19T10:25:36;1.03;;;1.03;;
8663;SDS011;4369;47.842;13.096;2023-09-19T10:28:06;0.90;;;0.90;;
8663;SDS011;4369;47.842;13.096;2023-09-19T10:30:36;1.13;;;1.00;;
8663;SDS011;4369;47.842;13.096;2023-09-19T10:33:09;2.83;;;1.33;;
8663;SDS011;4369;47.842;13.096;2023-09-19T10:35:37;1.97;;;1.80;;
8663;SDS011;4369;47.842;13.096;2023-09-19T10:38:06;1.43;;;1.07;;
8663;SDS011;4369;47.842;13.096;2023-09-19T10:40:34;1.13;;;1.10;;
8663;SDS011;4369;47.842;13.096;2023-09-19T10:43:07;1.27;;;1.17;;
8663;SDS011;4369;47.842;13.096;2023-09-19T10:45:38;1.30;;;0.90;;
8663;SDS011;4369;47.842;13.096;2023-09-19T10:48:06;0.90;;;0.90;;
8663;SDS011;4369;47.842;13.096;2023-09-19T10:50:35;1.20;;;1.10;;
8663;SDS011;4369;47.842;13.096;2023-09-19T10:53:10;1.23;;;1.07;;
8663;SDS011;4369;47.842;13.096;2023-09-19T10:55:38;1.10;;;1.00;;
8663;SDS011;4369;47.842;13.096;2023-09-19T10:58:07;1.45;;;1.17;;
8663;SDS011;4369;47.842;13.096;2023-09-19T11:00:50;0.90;;;0.90;;
8663;SDS011;4369;47.842;13.096;2023-09-19T11:03:19;1.10;;;1.00;;
8663;SDS011;4369;47.842;13.096;2023-09-19T11:06:01;1.02;;;1.02;;
8663;SDS011;4369;47.842;13.096;2023-09-19T11:11:42;1.38;;;1.20;;
8663;SDS011;4369;47.842;13.096;2023-09-19T11:20:19;0.90;;;0.90;;
8663;SDS011;4369;47.842;13.096;2023-09-19T11:25:54;1.08;;;1.08;;
8663;SDS011;4369;47.842;13.096;2023-09-19T11:28:31;1.35;;;1.20;;
8663;SDS011;4369;47.842;13.096;2023-09-19T11:34:40;1.05;;;1.05;;
8663;SDS011;4369;47.842;13.096;2023-09-19T11:40:37;1.00;;;0.90;;
8663;SDS011;4369;47.842;13.096;2023-09-19T11:46:05;1.15;;;1.05;;
8663;SDS011;4369;47.842;13.096;2023-09-19T11:48:34;1.10;;;1.00;;
8663;SDS011;4369;47.842;13.096;2023-09-19T11:51:17;1.23;;;1.13;;
8663;SDS011;4369;47.842;13.096;2023-09-19T11:53:47;1.20;;;1.20;;
8663;SDS011;4369;47.842;13.096;2023-09-19T11:56:15;1.35;;;1.10;;
8663;SDS011;4369;47.842;13.096;2023-09-19T11:58:43;1.40;;;0.93;;
8663;SDS011;4369;47.842;13.096;2023-09-19T12:01:12;1.33;;;1.20;;
8663;SDS011;4369;47.842;13.096;2023-09-19T12:03:46;1.23;;;1.20;;
8663;SDS011;4369;47.842;13.096;2023-09-19T12:06:19;1.42;;;1.30;;
8663;SDS011;4369;47.842;13.096;2023-09-19T12:08:47;1.30;;;1.20;;
8663;SDS011;4369;47.842;13.096;2023-09-19T12:11:15;1.13;;;1.00;;
8663;SDS011;4369;47.842;13.096;2023-09-19T12:13:43;1.73;;;1.00;;
8663;SDS011;4369;47.842;13.096;2023-09-19T12:16:14;2.20;;;1.20;;
8663;SDS011;4369;47.842;13.096;2023-09-19T12:18:43;1.33;;;1.23;;
8663;SDS011;4369;47.842;13.096;2023-09-19T12:21:29;1.73;;;1.58;;
8663;SDS011;4369;47.842;13.096;2023-09-19T12:24:05;1.50;;;1.40;;
8663;SDS011;4369;47.842;13.096;2023-09-19T12:26:39;1.38;;;1.27;;
8663;SDS011;4369;47.842;13.096;2023-09-19T12:29:12;1.88;;;1.10;;
8663;SDS011;4369;47.842;13.096;2023-09-19T12:31:52;1.77;;;1.20;;
8663;SDS011;4369;47.842;13.096;2023-09-19T12:34:23;1.40;;;1.30;;
8663;SDS011;4369;47.842;13.096;2023-09-19T12:37:09;1.50;;;1.40;;
8663;SDS011;4369;47.842;13.096;2023-09-19T12:39:48;1.52;;;1.25;;
8663;SDS011;4369;47.842;13.096;2023-09-19T12:42:16;1.73;;;1.40;;
8663;SDS011;4369;47.842;13.096;2023-09-19T12:44:44;1.15;;;0.80;;
8663;SDS011;4369;47.842;13.096;2023-09-19T12:47:13;1.17;;;1.17;;
8663;SDS011;4369;47.842;13.096;2023-09-19T12:52:44;1.30;;;1.13;;
8663;SDS011;4369;47.842;13.096;2023-09-19T12:55:20;1.30;;;1.20;;
8663;SDS011;4369;47.842;13.096;2023-09-19T12:57:55;1.17;;;1.05;;
8663;SDS011;4369;47.842;13.096;2023-09-19T13:00:30;1.10;;;0.98;;
8663;SDS011;4369;47.842;13.096;2023-09-19T13:03:12;1.13;;;1.00;;
8663;SDS011;4369;47.842;13.096;2023-09-19T13:05:50;1.75;;;1.30;;
8663;SDS011;4369;47.842;13.096;2023-09-19T13:08:21;1.05;;;0.95;;
8663;SDS011;4369;47.842;13.096;2023-09-19T13:11:05;1.50;;;1.20;;
8663;SDS011;4369;47.842;13.096;2023-09-19T13:13:38;1.77;;;1.30;;
8663;SDS011;4369;47.842;13.096;2023-09-19T13:16:06;1.10;;;0.93;;
8663;SDS011;4369;47.842;13.096;2023-09-19T13:18:43;2.72;;;1.20;;
8663;SDS011;4369;47.842;13.096;2023-09-19T13:21:12;1.10;;;1.00;;
8663;SDS011;4369;47.842;13.096;2023-09-19T13:23:50;2.28;;;1.45;;
8663;SDS011;4369;47.842;13.096;2023-09-19T13:26:17;1.98;;;1.20;;
8663;SDS011;4369;47.842;13.096;2023-09-19T13:28:45;0.98;;;0.90;;
8663;SDS011;4369;47.842;13.096;2023-09-19T13:31:13;1.30;;;1.20;;
8663;SDS011;4369;47.842;13.096;2023-09-19T13:33:43;1.40;;;1.30;;
8663;SDS011;4369;47.842;13.096;2023-09-19T13:36:11;1.20;;;1.10;;
8663;SDS011;4369;47.842;13.096;2023-09-19T13:38:39;0.90;;;0.90;;
8663;SDS011;4369;47.842;13.096;2023-09-19T13:41:09;1.00;;;1.00;;
8663;SDS011;4369;47.842;13.096;2023-09-19T13:43:36;1.05;;;1.00;;
8663;SDS011;4369;47.842;13.096;2023-09-19T13:46:03;1.17;;;1.10;;
8663;SDS011;4369;47.842;13.096;2023-09-19T13:48:32;1.27;;;1.20;;
8663;SDS011;4369;47.842;13.096;2023-09-19T13:51:03;1.10;;;1.00;;
8663;SDS011;4369;47.842;13.096;2023-09-19T13:53:30;1.10;;;1.00;;
8663;SDS011;4369;47.842;13.096;2023-09-19T13:55:57;1.20;;;1.20;;
8663;SDS011;4369;47.842;13.096;2023-09-19T13:58:25;1.05;;;1.05;;
8663;SDS011;4369;47.842;13.096;2023-09-19T14:00:53;1.20;;;1.10;;
8663;SDS011;4369;47.842;13.096;2023-09-19T14:03:25;2.50;;;0.90;;
8663;SDS011;4369;47.842;13.096;2023-09-19T14:05:53;1.10;;;1.00;;
8663;SDS011;4369;47.842;13.096;2023-09-19T14:08:20;2.05;;;1.30;;
8663;SDS011;4369;47.842;13.096;2023-09-19T14:10:48;1.35;;;1.17;;
8663;SDS011;4369;47.842;13.096;2023-09-19T14:13:15;2.28;;;1.10;;
8663;SDS011;4369;47.842;13.096;2023-09-19T14:15:43;1.00;;;1.00;;
8663;SDS011;4369;47.842;13.096;2023-09-19T14:18:10;0.90;;;0.90;;
8663;SDS011;4369;47.842;13.096;2023-09-19T14:20:37;2.78;;;1.30;;
8663;SDS011;4369;47.842;13.096;2023-09-19T14:23:06;1.10;;;1.10;;
8663;SDS011;4369;47.842;13.096;2023-09-19T14:25:33;1.00;;;1.00;;
8663;SDS011;4369;47.842;13.096;2023-09-19T14:28:01;1.50;;;1.40;;
8663;SDS011;4369;47.842;13.096;2023-09-19T14:30:28;1.00;;;0.90;;
8663;SDS011;4369;47.842;13.096;2023-09-19T14:32:56;1.50;;;1.38;;
8663;SDS011;4369;47.842;13.096;2023-09-19T14:35:23;1.05;;;1.05;;
8663;SDS011;4369;47.842;13.096;2023-09-19T14:37:51;3.28;;;1.45;;
8663;SDS011;4369;47.842;13.096;2023-09-19T14:40:18;1.45;;;1.35;;
8663;SDS011;4369;47.842;13.096;2023-09-19T14:42:44;1.55;;;1.20;;
8663;SDS011;4369;47.842;13.096;2023-09-19T14:45:13;1.20;;;1.10;;
8663;SDS011;4369;47.842;13.096;2023-09-19T14:47:43;1.05;;;1.05;;
8663;SDS011;4369;47.842;13.096;2023-09-19T14:50:14;1.00;;;0.90;;
8663;SDS011;4369;47.842;13.096;2023-09-19T14:52:41;1.23;;;1.10;;
8663;SDS011;4369;47.842;13.096;2023-09-19T14:55:09;1.55;;;1.05;;
8663;SDS011;4369;47.842;13.096;2023-09-19T14:57:39;1.00;;;1.00;;
8663;SDS011;4369;47.842;13.096;2023-09-19T15:00:08;1.45;;;1.35;;
8663;SDS011;4369;47.842;13.096;2023-09-19T15:02:37;2.50;;;0.90;;
8663;SDS011;4369;47.842;13.096;2023-09-19T15:05:05;1.58;;;1.30;;
8663;SDS011;4369;47.842;13.096;2023-09-19T15:07:35;0.90;;;0.90;;
8663;SDS011;4369;47.842;13.096;2023-09-19T15:10:03;1.30;;;1.17;;
8663;SDS011;4369;47.842;13.096;2023-09-19T15:12:34;1.17;;;1.17;;
8663;SDS011;4369;47.842;13.096;2023-09-19T15:15:03;1.40;;;1.30;;
8663;SDS011;4369;47.842;13.096;2023-09-19T15:17:32;1.50;;;1.38;;
8663;SDS011;4369;47.842;13.096;2023-09-19T15:19:59;1.38;;;1.00;;
8663;SDS011;4369;47.842;13.096;2023-09-19T15:22:27;1.42;;;1.33;;
8663;SDS011;4369;47.842;13.096;2023-09-19T15:24:55;2.88;;;1.63;;
8663;SDS011;4369;47.842;13.096;2023-09-19T15:27:22;1.30;;;1.23;;
8663;SDS011;4369;47.842;13.096;2023-09-19T15:29:49;1.00;;;1.00;;
8663;SDS011;4369;47.842;13.096;2023-09-19T15:32:16;1.63;;;1.13;;
8663;SDS011;4369;47.842;13.096;2023-09-19T15:34:43;2.15;;;1.40;;
8663;SDS011;4369;47.842;13.096;2023-09-19T15:37:10;1.40;;;1.27;;
8663;SDS011;4369;47.842;13.096;2023-09-19T15:39:37;1.55;;;1.00;;
8663;SDS011;4369;47.842;13.096;2023-09-19T15:42:05;0.93;;;0.90;;
8663;SDS011;4369;47.842;13.096;2023-09-19T15:44:32;1.15;;;1.05;;
8663;SDS011;4369;47.842;13.096;2023-09-19T15:46:59;1.30;;;1.17;;
8663;SDS011;4369;47.842;13.096;2023-09-19T15:49:26;3.17;;;1.30;;